Repülésmeteorológia

METAR


Utolsó módosítás időpontja: 2023-01-31 02:50:00
613
SAHU41 HASM 310300
METAR LHSM 310245Z AUTO 31005KT 280V350 CAVOK 00/M02 Q1017

TAF


Utolsó módosítás időpontja: 2023-01-31 02:25:00
612
FCHU99 LHSM 310200
TAF LHSM 310200Z NIL